FFT3930 KDEN-KPNS
Flight info
| Callsign | FFT3930 |
|---|---|
| Flight time | 2h 16m |
| Altitude | 39000 |
| Route | SLEEK2 SLEEK DRAWL DWINE HARES LOXLY PENSI |
| Aircraft | A20N/M-SDE3FGHIJ3J4RWXYZ/LB1 |
Departure
| Time | 2026-05-07 20:57 |
|---|---|
| Airport | Denver International Airport (KDEN) |
Arrival
| Time | 2026-05-07 23:13 |
|---|---|
| Airport | Pensacola International Airport (KPNS) |
| Time | Latitude | Longitude | Altitude | Speed | Heading |
|---|---|---|---|---|---|
| 2026-05-07 20:18 | 39.85366 | -104.66721 | 5383 ft | 0 kts | 360° |
| 2026-05-07 20:45 | 39.85365 | -104.66721 | 5383 ft | 2 kts | 360° |
| 2026-05-07 20:46 | 39.85339 | -104.66721 | 5383 ft | 4 kts | 360° |
| 2026-05-07 20:46 | 39.85312 | -104.66721 | 5383 ft | 4 kts | 360° |
| 2026-05-07 20:46 | 39.85285 | -104.66721 | 5383 ft | 4 kts | 360° |
| 2026-05-07 20:46 | 39.85276 | -104.66721 | 5383 ft | 0 kts | 360° |
| 2026-05-07 20:49 | 39.85280 | -104.66724 | 5383 ft | 0 kts | 330° |
| 2026-05-07 20:49 | 39.85280 | -104.66735 | 5383 ft | 4 kts | 279° |
| 2026-05-07 20:49 | 39.85275 | -104.66796 | 5383 ft | 9 kts | 263° |
| 2026-05-07 20:49 | 39.85274 | -104.66884 | 5383 ft | 11 kts | 269° |
| 2026-05-07 20:50 | 39.85273 | -104.66985 | 5383 ft | 12 kts | 270° |
| 2026-05-07 20:50 | 39.85275 | -104.67096 | 5383 ft | 13 kts | 271° |
| 2026-05-07 20:50 | 39.85276 | -104.67217 | 5383 ft | 14 kts | 270° |
| 2026-05-07 20:50 | 39.85277 | -104.67349 | 5383 ft | 15 kts | 270° |
| 2026-05-07 20:51 | 39.85278 | -104.67489 | 5383 ft | 16 kts | 271° |
| 2026-05-07 20:51 | 39.85279 | -104.67636 | 5383 ft | 17 kts | 270° |
| 2026-05-07 20:51 | 39.85280 | -104.67790 | 5383 ft | 17 kts | 270° |
| 2026-05-07 20:51 | 39.85281 | -104.67950 | 5383 ft | 18 kts | 271° |
| 2026-05-07 20:52 | 39.85283 | -104.68114 | 5383 ft | 16 kts | 274° |
| 2026-05-07 20:52 | 39.85305 | -104.68255 | 5381 ft | 16 kts | 281° |
| 2026-05-07 20:52 | 39.85308 | -104.68405 | 5379 ft | 17 kts | 270° |
| 2026-05-07 20:52 | 39.85332 | -104.68509 | 5376 ft | 11 kts | 331° |
| 2026-05-07 20:53 | 39.85418 | -104.68516 | 5376 ft | 14 kts | 0° |
| 2026-05-07 20:53 | 39.85526 | -104.68516 | 5372 ft | 18 kts | 360° |
| 2026-05-07 20:53 | 39.85660 | -104.68513 | 5372 ft | 21 kts | 0° |
| 2026-05-07 20:53 | 39.85802 | -104.68512 | 5369 ft | 20 kts | 0° |
| 2026-05-07 20:54 | 39.85948 | -104.68511 | 5370 ft | 22 kts | 0° |
| 2026-05-07 20:54 | 39.86090 | -104.68509 | 5369 ft | 21 kts | 0° |
| 2026-05-07 20:54 | 39.86231 | -104.68508 | 5363 ft | 20 kts | 0° |
| 2026-05-07 20:54 | 39.86348 | -104.68507 | 5362 ft | 17 kts | 0° |
| 2026-05-07 20:55 | 39.86422 | -104.68533 | 5361 ft | 10 kts | 304° |
| 2026-05-07 20:55 | 39.86427 | -104.68628 | 5361 ft | 11 kts | 270° |
| 2026-05-07 20:55 | 39.86430 | -104.68708 | 5362 ft | 5 kts | 291° |
| 2026-05-07 20:55 | 39.86462 | -104.68718 | 5362 ft | 6 kts | 359° |
| 2026-05-07 20:56 | 39.86552 | -104.68718 | 5363 ft | 41 kts | 0° |
| 2026-05-07 20:56 | 39.87335 | -104.68709 | 5361 ft | 124 kts | 0° |
| 2026-05-07 20:56 | 39.88369 | -104.68698 | 5362 ft | 171 kts | 1° |
| 2026-05-07 20:56 | 39.89601 | -104.68627 | 5827 ft | 176 kts | 357° |
| 2026-05-07 20:57 | 39.90418 | -104.68580 | 6246 ft | 179 kts | 355° |
| 2026-05-07 20:57 | 39.91700 | -104.68576 | 6751 ft | 192 kts | 353° |
| 2026-05-07 20:57 | 39.93101 | -104.68554 | 7122 ft | 215 kts | 4° |
| 2026-05-07 20:57 | 39.94538 | -104.67683 | 7491 ft | 245 kts | 38° |
| 2026-05-07 20:58 | 39.95582 | -104.65782 | 7801 ft | 275 kts | 68° |
| 2026-05-07 20:58 | 39.95916 | -104.63234 | 8208 ft | 298 kts | 87° |
| 2026-05-07 20:58 | 39.96005 | -104.60479 | 8889 ft | 307 kts | 87° |
| 2026-05-07 20:58 | 39.96064 | -104.57699 | 9850 ft | 308 kts | 91° |
| 2026-05-07 20:59 | 39.95620 | -104.54948 | 10569 ft | 320 kts | 114° |
| 2026-05-07 20:59 | 39.94334 | -104.52474 | 10875 ft | 343 kts | 137° |
| 2026-05-07 20:59 | 39.92307 | -104.50731 | 11254 ft | 356 kts | 161° |
| 2026-05-07 20:59 | 39.89892 | -104.50073 | 12071 ft | 355 kts | 177° |
| 2026-05-07 21:00 | 39.87415 | -104.49762 | 12898 ft | 359 kts | 178° |
| 2026-05-07 21:00 | 39.84915 | -104.49390 | 13647 ft | 365 kts | 175° |
| 2026-05-07 21:00 | 39.82379 | -104.48917 | 14374 ft | 371 kts | 174° |
| 2026-05-07 21:00 | 39.79811 | -104.48411 | 15108 ft | 375 kts | 174° |
| 2026-05-07 21:01 | 39.77210 | -104.47903 | 15814 ft | 380 kts | 174° |
| 2026-05-07 21:01 | 39.74582 | -104.47399 | 16512 ft | 384 kts | 175° |
| 2026-05-07 21:01 | 39.71953 | -104.46901 | 17150 ft | 389 kts | 175° |
| 2026-05-07 21:01 | 39.69257 | -104.46396 | 17797 ft | 394 kts | 175° |
| 2026-05-07 21:02 | 39.66526 | -104.45886 | 18433 ft | 398 kts | 175° |
| 2026-05-07 21:02 | 39.63770 | -104.45373 | 19065 ft | 402 kts | 175° |
| 2026-05-07 21:02 | 39.60988 | -104.44856 | 19714 ft | 405 kts | 175° |
| 2026-05-07 21:02 | 39.58184 | -104.44333 | 20326 ft | 409 kts | 176° |
| 2026-05-07 21:03 | 39.55357 | -104.43807 | 20912 ft | 412 kts | 176° |
| 2026-05-07 21:03 | 39.52503 | -104.43276 | 21484 ft | 416 kts | 176° |
| 2026-05-07 21:03 | 39.49626 | -104.42743 | 22083 ft | 419 kts | 176° |
| 2026-05-07 21:03 | 39.46722 | -104.42206 | 22664 ft | 422 kts | 176° |
| 2026-05-07 21:04 | 39.43801 | -104.41666 | 23200 ft | 426 kts | 176° |
| 2026-05-07 21:04 | 39.40852 | -104.41121 | 23731 ft | 429 kts | 176° |
| 2026-05-07 21:04 | 39.37885 | -104.40573 | 24283 ft | 431 kts | 176° |
| 2026-05-07 21:04 | 39.34897 | -104.40023 | 24788 ft | 435 kts | 176° |
| 2026-05-07 21:05 | 39.31930 | -104.39476 | 25243 ft | 439 kts | 176° |
| 2026-05-07 21:05 | 39.28897 | -104.38917 | 25721 ft | 441 kts | 176° |
| 2026-05-07 21:05 | 39.25845 | -104.38356 | 26179 ft | 445 kts | 176° |
| 2026-05-07 21:05 | 39.22774 | -104.37792 | 26604 ft | 447 kts | 177° |
| 2026-05-07 21:06 | 39.19679 | -104.37225 | 27035 ft | 450 kts | 177° |
| 2026-05-07 21:06 | 39.16575 | -104.36656 | 27471 ft | 452 kts | 177° |
| 2026-05-07 21:06 | 39.13455 | -104.35983 | 27869 ft | 458 kts | 172° |
| 2026-05-07 21:06 | 39.10340 | -104.34991 | 28263 ft | 461 kts | 171° |
| 2026-05-07 21:07 | 39.07219 | -104.33983 | 28595 ft | 465 kts | 171° |
| 2026-05-07 21:07 | 39.04069 | -104.32970 | 28956 ft | 467 kts | 171° |
| 2026-05-07 21:07 | 39.00908 | -104.31954 | 29284 ft | 469 kts | 171° |
| 2026-05-07 21:07 | 38.97730 | -104.30937 | 29619 ft | 471 kts | 171° |
| 2026-05-07 21:08 | 38.94538 | -104.29917 | 29974 ft | 473 kts | 171° |
| 2026-05-07 21:08 | 38.91329 | -104.28894 | 30289 ft | 476 kts | 171° |
| 2026-05-07 21:08 | 38.88144 | -104.27881 | 30592 ft | 478 kts | 171° |
| 2026-05-07 21:08 | 38.84898 | -104.26850 | 30907 ft | 481 kts | 171° |
| 2026-05-07 21:09 | 38.81646 | -104.25814 | 31236 ft | 482 kts | 171° |
| 2026-05-07 21:09 | 38.78392 | -104.24779 | 31598 ft | 483 kts | 171° |
| 2026-05-07 21:09 | 38.75130 | -104.23742 | 31982 ft | 482 kts | 171° |
| 2026-05-07 21:09 | 38.71878 | -104.22710 | 32385 ft | 481 kts | 171° |
| 2026-05-07 21:10 | 38.68634 | -104.21681 | 32746 ft | 480 kts | 171° |
| 2026-05-07 21:10 | 38.65383 | -104.20653 | 32964 ft | 484 kts | 171° |
| 2026-05-07 21:10 | 38.62086 | -104.19616 | 33006 ft | 491 kts | 171° |
| 2026-05-07 21:10 | 38.58759 | -104.18566 | 33275 ft | 492 kts | 170° |
| 2026-05-07 21:11 | 38.55438 | -104.17514 | 33650 ft | 491 kts | 169° |
| 2026-05-07 21:11 | 38.52189 | -104.16135 | 34020 ft | 494 kts | 160° |
| 2026-05-07 21:11 | 38.46308 | -104.11527 | 34663 ft | 500 kts | 142° |
| 2026-05-07 21:12 | 38.43661 | -104.08648 | 35004 ft | 498 kts | 142° |
| 2026-05-07 21:12 | 38.41057 | -104.05822 | 35334 ft | 496 kts | 142° |
| 2026-05-07 21:12 | 38.38421 | -104.02976 | 35608 ft | 496 kts | 142° |
| 2026-05-07 21:12 | 38.35788 | -104.00142 | 35892 ft | 495 kts | 143° |
| 2026-05-07 21:13 | 38.33162 | -103.97320 | 36181 ft | 494 kts | 143° |
| 2026-05-07 21:13 | 38.30532 | -103.94497 | 36420 ft | 493 kts | 143° |
| 2026-05-07 21:13 | 38.27911 | -103.91688 | 36698 ft | 491 kts | 143° |
| 2026-05-07 21:13 | 38.25308 | -103.88899 | 37016 ft | 488 kts | 144° |
| 2026-05-07 21:14 | 38.22716 | -103.86125 | 37305 ft | 486 kts | 144° |
| 2026-05-07 21:14 | 38.20139 | -103.83371 | 37584 ft | 483 kts | 144° |
| 2026-05-07 21:14 | 38.17573 | -103.80631 | 37858 ft | 480 kts | 144° |
| 2026-05-07 21:14 | 38.15012 | -103.77901 | 38056 ft | 480 kts | 144° |
| 2026-05-07 21:15 | 38.12457 | -103.75179 | 38210 ft | 480 kts | 145° |
| 2026-05-07 21:15 | 38.09907 | -103.72450 | 38368 ft | 481 kts | 142° |
| 2026-05-07 21:15 | 38.07596 | -103.69353 | 38512 ft | 487 kts | 131° |
| 2026-05-07 21:15 | 38.05756 | -103.65786 | 38630 ft | 493 kts | 120° |
| 2026-05-07 21:16 | 38.03314 | -103.57622 | 38842 ft | 497 kts | 110° |
| 2026-05-07 21:16 | 38.02207 | -103.53463 | 38948 ft | 498 kts | 111° |
| 2026-05-07 21:16 | 38.01092 | -103.49305 | 39001 ft | 499 kts | 111° |
| 2026-05-07 21:17 | 37.98845 | -103.40990 | 39007 ft | 498 kts | 111° |
| 2026-05-07 21:17 | 37.96595 | -103.32703 | 39012 ft | 497 kts | 112° |
| 2026-05-07 21:18 | 37.94337 | -103.24417 | 39005 ft | 498 kts | 112° |
| 2026-05-07 21:18 | 37.92070 | -103.16128 | 39013 ft | 498 kts | 112° |
| 2026-05-07 21:19 | 37.89800 | -103.07846 | 39006 ft | 498 kts | 112° |
| 2026-05-07 21:19 | 37.87527 | -102.99577 | 38998 ft | 497 kts | 112° |
| 2026-05-07 21:20 | 37.85246 | -102.91308 | 38995 ft | 497 kts | 113° |
| 2026-05-07 21:20 | 37.82975 | -102.83101 | 38996 ft | 497 kts | 113° |
| 2026-05-07 21:21 | 37.80682 | -102.74844 | 38987 ft | 497 kts | 113° |
| 2026-05-07 21:21 | 37.78382 | -102.66588 | 38985 ft | 498 kts | 113° |
| 2026-05-07 21:22 | 37.76074 | -102.58331 | 38986 ft | 498 kts | 114° |
| 2026-05-07 21:22 | 37.73759 | -102.50074 | 38990 ft | 499 kts | 113° |
| 2026-05-07 21:23 | 37.71429 | -102.41788 | 38996 ft | 500 kts | 114° |
| 2026-05-07 21:23 | 37.69093 | -102.33509 | 38993 ft | 501 kts | 114° |
| 2026-05-07 21:24 | 37.66749 | -102.25226 | 39005 ft | 502 kts | 114° |
| 2026-05-07 21:24 | 37.64391 | -102.16922 | 39006 ft | 503 kts | 114° |
| 2026-05-07 21:25 | 37.62026 | -102.08609 | 38996 ft | 503 kts | 114° |
| 2026-05-07 21:25 | 37.59652 | -102.00295 | 38991 ft | 503 kts | 114° |
| 2026-05-07 21:26 | 37.57276 | -101.92001 | 38985 ft | 504 kts | 114° |
| 2026-05-07 21:26 | 37.54902 | -101.83737 | 38982 ft | 504 kts | 114° |
| 2026-05-07 21:27 | 37.52508 | -101.75427 | 38981 ft | 505 kts | 114° |
| 2026-05-07 21:27 | 37.50110 | -101.67127 | 38978 ft | 504 kts | 115° |
| 2026-05-07 21:28 | 37.47487 | -101.58963 | 38985 ft | 500 kts | 122° |
| 2026-05-07 21:28 | 37.44399 | -101.51095 | 38984 ft | 502 kts | 122° |
| 2026-05-07 21:29 | 37.41337 | -101.43212 | 38980 ft | 501 kts | 122° |
| 2026-05-07 21:29 | 37.38274 | -101.35337 | 38978 ft | 501 kts | 122° |
| 2026-05-07 21:30 | 37.35222 | -101.27517 | 38992 ft | 501 kts | 122° |
| 2026-05-07 21:30 | 37.32139 | -101.19648 | 38984 ft | 502 kts | 123° |
| 2026-05-07 21:31 | 37.29049 | -101.11783 | 38989 ft | 502 kts | 123° |
| 2026-05-07 21:31 | 37.25955 | -101.03929 | 38984 ft | 501 kts | 123° |
| 2026-05-07 21:32 | 37.22861 | -100.96095 | 38985 ft | 501 kts | 123° |
| 2026-05-07 21:32 | 37.19765 | -100.88274 | 38979 ft | 500 kts | 123° |
| 2026-05-07 21:33 | 37.16646 | -100.80422 | 39014 ft | 505 kts | 124° |
| 2026-05-07 21:33 | 37.13513 | -100.72545 | 39007 ft | 504 kts | 124° |
| 2026-05-07 21:34 | 37.10396 | -100.64732 | 39006 ft | 505 kts | 124° |
| 2026-05-07 21:34 | 37.07253 | -100.56870 | 39000 ft | 505 kts | 124° |
| 2026-05-07 21:35 | 37.04098 | -100.49002 | 38998 ft | 506 kts | 124° |
| 2026-05-07 21:35 | 37.00933 | -100.41124 | 39010 ft | 507 kts | 124° |
| 2026-05-07 21:36 | 36.97758 | -100.33244 | 39006 ft | 508 kts | 124° |
| 2026-05-07 21:36 | 36.94575 | -100.25360 | 39004 ft | 507 kts | 125° |
| 2026-05-07 21:37 | 36.91399 | -100.17511 | 39010 ft | 506 kts | 125° |
| 2026-05-07 21:37 | 36.88209 | -100.09656 | 39003 ft | 507 kts | 125° |
| 2026-05-07 21:38 | 36.85012 | -100.01795 | 39003 ft | 507 kts | 125° |
| 2026-05-07 21:38 | 36.81806 | -99.93935 | 39006 ft | 510 kts | 126° |
| 2026-05-07 21:39 | 36.78568 | -99.86017 | 39021 ft | 512 kts | 126° |
| 2026-05-07 21:39 | 36.75333 | -99.78113 | 39017 ft | 511 kts | 126° |
| 2026-05-07 21:40 | 36.72083 | -99.70205 | 39019 ft | 511 kts | 126° |
| 2026-05-07 21:40 | 36.68836 | -99.62324 | 39031 ft | 512 kts | 126° |
| 2026-05-07 21:41 | 36.65597 | -99.54480 | 39030 ft | 512 kts | 126° |
| 2026-05-07 21:41 | 36.62334 | -99.46594 | 39030 ft | 511 kts | 126° |
| 2026-05-07 21:42 | 36.59069 | -99.38722 | 39014 ft | 511 kts | 127° |
| 2026-05-07 21:42 | 36.55803 | -99.30869 | 39020 ft | 511 kts | 127° |
| 2026-05-07 21:43 | 36.52534 | -99.23030 | 39022 ft | 511 kts | 127° |
| 2026-05-07 21:43 | 36.49260 | -99.15196 | 39002 ft | 511 kts | 127° |
| 2026-05-07 21:44 | 36.46535 | -99.08688 | 39002 ft | 511 kts | 127° |
| 2026-05-07 21:44 | 36.43249 | -99.00863 | 38998 ft | 511 kts | 127° |
| 2026-05-07 21:45 | 36.39419 | -98.91767 | 38985 ft | 512 kts | 127° |
| 2026-05-07 21:45 | 36.36648 | -98.85199 | 38986 ft | 513 kts | 127° |
| 2026-05-07 21:46 | 36.33335 | -98.77362 | 38994 ft | 513 kts | 127° |
| 2026-05-07 21:46 | 36.30032 | -98.69569 | 39008 ft | 514 kts | 127° |
| 2026-05-07 21:47 | 36.26695 | -98.61716 | 39003 ft | 516 kts | 128° |
| 2026-05-07 21:47 | 36.23341 | -98.53842 | 39007 ft | 517 kts | 128° |
| 2026-05-07 21:48 | 36.19972 | -98.45949 | 39008 ft | 518 kts | 128° |
| 2026-05-07 21:48 | 36.16595 | -98.38056 | 39015 ft | 519 kts | 128° |
| 2026-05-07 21:49 | 36.13209 | -98.30161 | 39025 ft | 520 kts | 128° |
| 2026-05-07 21:49 | 36.09806 | -98.22247 | 39028 ft | 522 kts | 128° |
| 2026-05-07 21:50 | 36.06426 | -98.14398 | 39014 ft | 519 kts | 128° |
| 2026-05-07 21:50 | 36.03023 | -98.06521 | 39009 ft | 520 kts | 128° |
| 2026-05-07 21:51 | 35.99609 | -97.98639 | 39003 ft | 520 kts | 128° |
| 2026-05-07 21:51 | 35.96194 | -97.90771 | 39003 ft | 520 kts | 129° |
| 2026-05-07 21:52 | 35.92775 | -97.82910 | 39002 ft | 520 kts | 129° |
| 2026-05-07 21:52 | 35.89352 | -97.75063 | 39008 ft | 520 kts | 129° |
| 2026-05-07 21:53 | 35.85921 | -97.67219 | 39024 ft | 520 kts | 129° |
| 2026-05-07 21:53 | 35.82483 | -97.59372 | 39030 ft | 520 kts | 129° |
| 2026-05-07 21:54 | 35.79064 | -97.51587 | 39027 ft | 520 kts | 129° |
| 2026-05-07 21:54 | 35.75614 | -97.43751 | 39027 ft | 520 kts | 129° |
| 2026-05-07 21:55 | 35.72160 | -97.35922 | 39029 ft | 521 kts | 129° |
| 2026-05-07 21:55 | 35.68697 | -97.28091 | 39034 ft | 521 kts | 129° |
| 2026-05-07 21:56 | 35.65230 | -97.20272 | 39035 ft | 521 kts | 129° |
| 2026-05-07 21:56 | 35.61756 | -97.12453 | 39033 ft | 521 kts | 129° |
| 2026-05-07 21:57 | 35.58278 | -97.04643 | 39034 ft | 521 kts | 129° |
| 2026-05-07 21:57 | 35.54813 | -96.96879 | 39036 ft | 521 kts | 129° |
| 2026-05-07 21:58 | 35.51321 | -96.89077 | 39035 ft | 522 kts | 130° |
| 2026-05-07 21:58 | 35.47821 | -96.81273 | 39035 ft | 522 kts | 130° |
| 2026-05-07 21:59 | 35.44314 | -96.73471 | 39029 ft | 523 kts | 130° |
| 2026-05-07 21:59 | 35.40796 | -96.65664 | 39029 ft | 523 kts | 130° |
| 2026-05-07 22:00 | 35.37272 | -96.57861 | 39032 ft | 524 kts | 130° |
| 2026-05-07 22:00 | 35.33736 | -96.50049 | 39034 ft | 524 kts | 130° |
| 2026-05-07 22:01 | 35.30198 | -96.42247 | 39040 ft | 524 kts | 130° |
| 2026-05-07 22:01 | 35.26651 | -96.34438 | 39050 ft | 525 kts | 130° |
| 2026-05-07 22:02 | 35.23123 | -96.26685 | 39055 ft | 525 kts | 130° |
| 2026-05-07 22:02 | 35.19505 | -96.18928 | 39057 ft | 523 kts | 131° |
| 2026-05-07 22:03 | 35.15905 | -96.11163 | 39055 ft | 524 kts | 130° |
| 2026-05-07 22:03 | 35.12347 | -96.03403 | 39055 ft | 523 kts | 130° |
| 2026-05-07 22:04 | 35.08762 | -95.95659 | 39054 ft | 523 kts | 130° |
| 2026-05-07 22:04 | 35.05187 | -95.87976 | 39064 ft | 524 kts | 131° |
| 2026-05-07 22:05 | 35.01580 | -95.80247 | 39061 ft | 523 kts | 131° |
| 2026-05-07 22:05 | 34.97968 | -95.72531 | 39054 ft | 524 kts | 130° |
| 2026-05-07 22:06 | 34.94348 | -95.64813 | 39057 ft | 524 kts | 131° |
| 2026-05-07 22:06 | 34.90744 | -95.57144 | 39059 ft | 525 kts | 131° |
| 2026-05-07 22:07 | 34.87110 | -95.49430 | 39067 ft | 525 kts | 131° |
| 2026-05-07 22:07 | 34.83473 | -95.41724 | 39060 ft | 525 kts | 131° |
| 2026-05-07 22:08 | 34.79827 | -95.34020 | 39060 ft | 525 kts | 131° |
| 2026-05-07 22:08 | 34.76176 | -95.26321 | 39060 ft | 526 kts | 131° |
| 2026-05-07 22:09 | 34.72517 | -95.18620 | 39062 ft | 526 kts | 131° |
| 2026-05-07 22:09 | 34.68852 | -95.10926 | 39053 ft | 526 kts | 131° |
| 2026-05-07 22:10 | 34.65189 | -95.03251 | 39054 ft | 524 kts | 131° |
| 2026-05-07 22:10 | 34.61526 | -94.95594 | 39055 ft | 524 kts | 131° |
| 2026-05-07 22:11 | 34.57856 | -94.87942 | 39055 ft | 524 kts | 131° |
| 2026-05-07 22:11 | 34.54183 | -94.80298 | 39044 ft | 524 kts | 131° |
| 2026-05-07 22:12 | 34.50510 | -94.72667 | 39043 ft | 524 kts | 131° |
| 2026-05-07 22:12 | 34.46827 | -94.65037 | 39032 ft | 524 kts | 131° |
| 2026-05-07 22:13 | 34.43167 | -94.57470 | 39034 ft | 524 kts | 131° |
| 2026-05-07 22:13 | 34.39475 | -94.49851 | 39037 ft | 525 kts | 131° |
| 2026-05-07 22:14 | 34.35769 | -94.42224 | 39038 ft | 525 kts | 131° |
| 2026-05-07 22:14 | 34.32056 | -94.34594 | 39037 ft | 526 kts | 131° |
| 2026-05-07 22:15 | 34.28341 | -94.26977 | 39042 ft | 526 kts | 131° |
| 2026-05-07 22:15 | 34.24620 | -94.19366 | 39043 ft | 526 kts | 131° |
| 2026-05-07 22:16 | 34.20891 | -94.11755 | 39046 ft | 526 kts | 131° |
| 2026-05-07 22:16 | 34.17156 | -94.04147 | 39046 ft | 526 kts | 131° |
| 2026-05-07 22:17 | 34.13415 | -93.96542 | 39048 ft | 526 kts | 131° |
| 2026-05-07 22:17 | 34.09692 | -93.88991 | 39052 ft | 526 kts | 131° |
| 2026-05-07 22:18 | 34.04072 | -93.77623 | 39044 ft | 526 kts | 131° |
| 2026-05-07 22:19 | 34.00321 | -93.70056 | 39049 ft | 525 kts | 131° |
| 2026-05-07 22:19 | 33.96573 | -93.62509 | 39045 ft | 524 kts | 132° |
| 2026-05-07 22:20 | 33.92827 | -93.54982 | 39058 ft | 523 kts | 132° |
| 2026-05-07 22:20 | 33.89076 | -93.47466 | 39058 ft | 523 kts | 132° |
| 2026-05-07 22:21 | 33.85330 | -93.39972 | 39055 ft | 523 kts | 132° |
| 2026-05-07 22:21 | 33.81576 | -93.32480 | 39055 ft | 522 kts | 132° |
| 2026-05-07 22:22 | 33.77819 | -93.24998 | 39046 ft | 523 kts | 132° |
| 2026-05-07 22:22 | 33.74056 | -93.17517 | 39047 ft | 523 kts | 132° |
| 2026-05-07 22:23 | 33.70310 | -93.10085 | 39049 ft | 524 kts | 132° |
| 2026-05-07 22:23 | 33.66529 | -93.02599 | 39051 ft | 524 kts | 132° |
| 2026-05-07 22:24 | 33.62747 | -92.95127 | 39052 ft | 524 kts | 132° |
| 2026-05-07 22:24 | 33.58956 | -92.87653 | 39047 ft | 525 kts | 132° |
| 2026-05-07 22:25 | 33.55150 | -92.80164 | 39046 ft | 526 kts | 132° |
| 2026-05-07 22:25 | 33.51331 | -92.72666 | 39050 ft | 527 kts | 132° |
| 2026-05-07 22:26 | 33.47508 | -92.65175 | 39054 ft | 527 kts | 132° |
| 2026-05-07 22:26 | 33.43673 | -92.57676 | 39068 ft | 528 kts | 132° |
| 2026-05-07 22:27 | 33.39830 | -92.50178 | 39073 ft | 528 kts | 132° |
| 2026-05-07 22:27 | 33.35981 | -92.42683 | 39069 ft | 529 kts | 132° |
| 2026-05-07 22:28 | 33.32124 | -92.35188 | 39067 ft | 530 kts | 132° |
| 2026-05-07 22:28 | 33.28280 | -92.27730 | 39072 ft | 530 kts | 132° |
| 2026-05-07 22:29 | 33.24425 | -92.20258 | 39073 ft | 525 kts | 132° |
| 2026-05-07 22:29 | 33.20577 | -92.12830 | 39072 ft | 526 kts | 132° |
| 2026-05-07 22:30 | 33.16718 | -92.05396 | 39074 ft | 526 kts | 132° |
| 2026-05-07 22:30 | 33.12865 | -91.97984 | 39076 ft | 525 kts | 132° |
| 2026-05-07 22:31 | 33.08993 | -91.90555 | 39074 ft | 528 kts | 132° |
| 2026-05-07 22:31 | 33.05135 | -91.83146 | 39072 ft | 525 kts | 132° |
| 2026-05-07 22:32 | 33.01266 | -91.75743 | 39071 ft | 525 kts | 132° |
| 2026-05-07 22:32 | 32.97332 | -91.68517 | 39072 ft | 523 kts | 133° |
| 2026-05-07 22:33 | 32.93403 | -91.61212 | 39073 ft | 524 kts | 133° |
| 2026-05-07 22:33 | 32.89479 | -91.53923 | 39072 ft | 522 kts | 133° |
| 2026-05-07 22:34 | 32.86186 | -91.47844 | 39067 ft | 521 kts | 133° |
| 2026-05-07 22:34 | 32.82254 | -91.40613 | 39057 ft | 520 kts | 133° |
| 2026-05-07 22:35 | 32.78355 | -91.33461 | 39053 ft | 519 kts | 133° |
| 2026-05-07 22:35 | 32.74429 | -91.26274 | 39047 ft | 518 kts | 133° |
| 2026-05-07 22:36 | 32.70509 | -91.19111 | 39043 ft | 517 kts | 134° |
| 2026-05-07 22:36 | 32.66587 | -91.11956 | 39040 ft | 517 kts | 134° |
| 2026-05-07 22:37 | 32.62664 | -91.04815 | 39030 ft | 516 kts | 134° |
| 2026-05-07 22:37 | 32.58737 | -90.97681 | 39034 ft | 516 kts | 134° |
| 2026-05-07 22:38 | 32.54801 | -90.90543 | 39027 ft | 517 kts | 134° |
| 2026-05-07 22:38 | 32.50860 | -90.83411 | 39038 ft | 517 kts | 134° |
| 2026-05-07 22:39 | 32.46912 | -90.76279 | 39045 ft | 518 kts | 134° |
| 2026-05-07 22:39 | 32.42957 | -90.69149 | 39041 ft | 518 kts | 134° |
| 2026-05-07 22:40 | 32.39018 | -90.62058 | 39045 ft | 519 kts | 134° |
| 2026-05-07 22:40 | 32.35041 | -90.54912 | 39053 ft | 519 kts | 134° |
| 2026-05-07 22:41 | 32.31064 | -90.47780 | 39056 ft | 520 kts | 134° |
| 2026-05-07 22:41 | 32.27075 | -90.40642 | 39047 ft | 519 kts | 134° |
| 2026-05-07 22:42 | 32.23107 | -90.33550 | 39045 ft | 517 kts | 134° |
| 2026-05-07 22:42 | 32.19128 | -90.26459 | 39045 ft | 517 kts | 134° |
| 2026-05-07 22:43 | 32.15150 | -90.19378 | 39045 ft | 517 kts | 134° |
| 2026-05-07 22:43 | 32.11176 | -90.12319 | 39055 ft | 517 kts | 134° |
| 2026-05-07 22:44 | 32.07221 | -90.05307 | 39056 ft | 517 kts | 134° |
| 2026-05-07 22:44 | 32.03232 | -89.98249 | 39057 ft | 517 kts | 134° |
| 2026-05-07 22:45 | 31.99241 | -89.91198 | 39065 ft | 517 kts | 134° |
| 2026-05-07 22:45 | 31.95250 | -89.84160 | 39065 ft | 517 kts | 134° |
| 2026-05-07 22:46 | 31.91250 | -89.77122 | 39074 ft | 517 kts | 134° |
| 2026-05-07 22:46 | 31.87248 | -89.70091 | 39075 ft | 517 kts | 134° |
| 2026-05-07 22:47 | 31.83239 | -89.63062 | 39076 ft | 517 kts | 134° |
| 2026-05-07 22:47 | 31.79261 | -89.56098 | 39063 ft | 515 kts | 134° |
| 2026-05-07 22:48 | 31.75270 | -89.49123 | 39055 ft | 513 kts | 134° |
| 2026-05-07 22:48 | 31.71278 | -89.42162 | 39055 ft | 513 kts | 134° |
| 2026-05-07 22:49 | 31.67286 | -89.35215 | 39054 ft | 512 kts | 134° |
| 2026-05-07 22:49 | 31.63298 | -89.28283 | 39052 ft | 512 kts | 133° |
| 2026-05-07 22:50 | 31.59314 | -89.21372 | 39053 ft | 511 kts | 133° |
| 2026-05-07 22:50 | 31.55370 | -89.14540 | 38404 ft | 508 kts | 133° |
| 2026-05-07 22:50 | 31.53387 | -89.11112 | 37468 ft | 509 kts | 133° |
| 2026-05-07 22:51 | 31.51390 | -89.07668 | 36352 ft | 512 kts | 133° |
| 2026-05-07 22:51 | 31.49380 | -89.04203 | 35120 ft | 517 kts | 133° |
| 2026-05-07 22:51 | 31.47356 | -89.00714 | 34066 ft | 517 kts | 133° |
| 2026-05-07 22:51 | 31.45352 | -88.97249 | 33345 ft | 508 kts | 133° |
| 2026-05-07 22:52 | 31.43374 | -88.93834 | 32795 ft | 506 kts | 133° |
| 2026-05-07 22:52 | 31.41381 | -88.90414 | 31953 ft | 511 kts | 133° |
| 2026-05-07 22:52 | 31.39367 | -88.86968 | 31164 ft | 513 kts | 132° |
| 2026-05-07 22:52 | 31.37367 | -88.83534 | 30640 ft | 508 kts | 132° |
| 2026-05-07 22:53 | 31.35386 | -88.80133 | 30047 ft | 504 kts | 132° |
| 2026-05-07 22:53 | 31.33417 | -88.76755 | 29450 ft | 500 kts | 132° |
| 2026-05-07 22:53 | 31.31461 | -88.73404 | 28859 ft | 497 kts | 131° |
| 2026-05-07 22:53 | 31.29521 | -88.70084 | 28277 ft | 493 kts | 132° |
| 2026-05-07 22:54 | 31.27620 | -88.66834 | 27692 ft | 489 kts | 132° |
| 2026-05-07 22:54 | 31.25709 | -88.63569 | 27092 ft | 485 kts | 132° |
| 2026-05-07 22:54 | 31.23808 | -88.60327 | 26456 ft | 483 kts | 131° |
| 2026-05-07 22:54 | 31.21922 | -88.57111 | 25926 ft | 477 kts | 132° |
| 2026-05-07 22:55 | 31.20055 | -88.53928 | 25344 ft | 473 kts | 131° |
| 2026-05-07 22:55 | 31.18202 | -88.50774 | 24778 ft | 468 kts | 131° |
| 2026-05-07 22:55 | 31.16368 | -88.47654 | 24206 ft | 464 kts | 131° |
| 2026-05-07 22:55 | 31.14548 | -88.44559 | 23642 ft | 460 kts | 131° |
| 2026-05-07 22:56 | 31.12743 | -88.41496 | 23063 ft | 456 kts | 131° |
| 2026-05-07 22:56 | 31.10953 | -88.38457 | 22499 ft | 452 kts | 131° |
| 2026-05-07 22:56 | 31.09177 | -88.35446 | 21928 ft | 448 kts | 131° |
| 2026-05-07 22:56 | 31.07415 | -88.32461 | 21368 ft | 444 kts | 131° |
| 2026-05-07 22:57 | 31.05668 | -88.29502 | 20795 ft | 441 kts | 131° |
| 2026-05-07 22:57 | 31.03956 | -88.26605 | 20246 ft | 437 kts | 131° |
| 2026-05-07 22:57 | 31.02233 | -88.23694 | 19681 ft | 434 kts | 131° |
| 2026-05-07 22:57 | 31.00526 | -88.20811 | 19121 ft | 430 kts | 131° |
| 2026-05-07 22:58 | 30.98835 | -88.17955 | 18559 ft | 426 kts | 131° |
| 2026-05-07 22:58 | 30.97157 | -88.15123 | 18004 ft | 423 kts | 131° |
| 2026-05-07 22:58 | 30.95489 | -88.12312 | 17450 ft | 420 kts | 131° |
| 2026-05-07 22:58 | 30.93836 | -88.09529 | 16898 ft | 416 kts | 131° |
| 2026-05-07 22:59 | 30.92193 | -88.06764 | 16352 ft | 413 kts | 130° |
| 2026-05-07 22:59 | 30.90567 | -88.04029 | 15807 ft | 409 kts | 130° |
| 2026-05-07 22:59 | 30.88954 | -88.01318 | 15267 ft | 405 kts | 130° |
| 2026-05-07 22:59 | 30.87356 | -87.98635 | 14734 ft | 402 kts | 130° |
| 2026-05-07 23:00 | 30.85773 | -87.95977 | 14216 ft | 398 kts | 129° |
| 2026-05-07 23:00 | 30.84202 | -87.93344 | 13695 ft | 394 kts | 129° |
| 2026-05-07 23:00 | 30.82647 | -87.90737 | 13177 ft | 390 kts | 129° |
| 2026-05-07 23:00 | 30.81105 | -87.88154 | 12656 ft | 387 kts | 129° |
| 2026-05-07 23:01 | 30.79576 | -87.85594 | 12151 ft | 383 kts | 128° |
| 2026-05-07 23:01 | 30.78063 | -87.83060 | 11645 ft | 380 kts | 128° |
| 2026-05-07 23:01 | 30.76819 | -87.80361 | 11142 ft | 380 kts | 111° |
| 2026-05-07 23:01 | 30.76350 | -87.77354 | 10637 ft | 378 kts | 91° |
| 2026-05-07 23:02 | 30.76497 | -87.74341 | 10371 ft | 367 kts | 85° |
| 2026-05-07 23:02 | 30.76683 | -87.71439 | 10228 ft | 353 kts | 85° |
| 2026-05-07 23:02 | 30.76860 | -87.68651 | 10094 ft | 339 kts | 85° |
| 2026-05-07 23:02 | 30.77026 | -87.65991 | 9834 ft | 331 kts | 85° |
| 2026-05-07 23:03 | 30.77190 | -87.63339 | 9508 ft | 326 kts | 85° |
| 2026-05-07 23:03 | 30.77348 | -87.60727 | 9130 ft | 323 kts | 85° |
| 2026-05-07 23:03 | 30.77505 | -87.58134 | 8750 ft | 319 kts | 85° |
| 2026-05-07 23:03 | 30.77660 | -87.55566 | 8371 ft | 316 kts | 86° |
| 2026-05-07 23:04 | 30.77813 | -87.53023 | 7989 ft | 314 kts | 85° |
| 2026-05-07 23:04 | 30.77964 | -87.50500 | 7609 ft | 311 kts | 85° |
| 2026-05-07 23:04 | 30.78113 | -87.47998 | 7236 ft | 309 kts | 85° |
| 2026-05-07 23:04 | 30.78260 | -87.45519 | 6863 ft | 306 kts | 85° |
| 2026-05-07 23:05 | 30.78406 | -87.43057 | 6463 ft | 305 kts | 85° |
| 2026-05-07 23:05 | 30.78550 | -87.40606 | 6092 ft | 303 kts | 85° |
| 2026-05-07 23:05 | 30.78692 | -87.38200 | 5721 ft | 301 kts | 85° |
| 2026-05-07 23:05 | 30.78834 | -87.35782 | 5342 ft | 299 kts | 85° |
| 2026-05-07 23:06 | 30.78975 | -87.33382 | 5069 ft | 293 kts | 85° |
| 2026-05-07 23:06 | 30.79103 | -87.31017 | 4667 ft | 295 kts | 89° |
| 2026-05-07 23:06 | 30.78712 | -87.28694 | 4248 ft | 293 kts | 116° |
| 2026-05-07 23:06 | 30.77520 | -87.26863 | 4043 ft | 278 kts | 145° |
| 2026-05-07 23:07 | 30.75818 | -87.25895 | 3990 ft | 267 kts | 171° |
| 2026-05-07 23:07 | 30.74038 | -87.25666 | 3985 ft | 249 kts | 180° |
| 2026-05-07 23:07 | 30.72364 | -87.25446 | 3986 ft | 235 kts | 175° |
| 2026-05-07 23:07 | 30.70812 | -87.25100 | 3994 ft | 231 kts | 172° |
| 2026-05-07 23:08 | 30.69229 | -87.24677 | 3991 ft | 232 kts | 171° |
| 2026-05-07 23:08 | 30.67661 | -87.24257 | 3975 ft | 232 kts | 171° |
| 2026-05-07 23:08 | 30.66104 | -87.23839 | 3717 ft | 229 kts | 171° |
| 2026-05-07 23:08 | 30.64559 | -87.23425 | 3375 ft | 225 kts | 171° |
| 2026-05-07 23:09 | 30.63070 | -87.23025 | 3066 ft | 212 kts | 171° |
| 2026-05-07 23:09 | 30.61691 | -87.22654 | 2841 ft | 193 kts | 172° |
| 2026-05-07 23:09 | 30.60432 | -87.22318 | 2564 ft | 178 kts | 171° |
| 2026-05-07 23:09 | 30.59280 | -87.22009 | 2326 ft | 163 kts | 169° |
| 2026-05-07 23:10 | 30.58220 | -87.21726 | 2115 ft | 149 kts | 168° |
| 2026-05-07 23:10 | 30.57262 | -87.21470 | 1932 ft | 134 kts | 167° |
| 2026-05-07 23:10 | 30.56360 | -87.21228 | 1763 ft | 136 kts | 166° |
| 2026-05-07 23:10 | 30.55445 | -87.20983 | 1576 ft | 134 kts | 166° |
| 2026-05-07 23:11 | 30.54528 | -87.20737 | 1401 ft | 136 kts | 165° |
| 2026-05-07 23:11 | 30.53604 | -87.20490 | 1217 ft | 137 kts | 166° |
| 2026-05-07 23:11 | 30.52673 | -87.20240 | 1033 ft | 137 kts | 166° |
| 2026-05-07 23:11 | 30.51740 | -87.19991 | 849 ft | 138 kts | 166° |
| 2026-05-07 23:12 | 30.50801 | -87.19739 | 666 ft | 139 kts | 167° |
| 2026-05-07 23:12 | 30.49868 | -87.19488 | 476 ft | 137 kts | 167° |
| 2026-05-07 23:12 | 30.48943 | -87.19238 | 294 ft | 136 kts | 167° |
| 2026-05-07 23:12 | 30.48023 | -87.18995 | 152 ft | 135 kts | 167° |
| 2026-05-07 23:13 | 30.47209 | -87.18777 | 126 ft | 90 kts | 167° |
| 2026-05-07 23:13 | 30.46844 | -87.18682 | 125 ft | 32 kts | 167° |
| 2026-05-07 23:13 | 30.46715 | -87.18654 | 123 ft | 13 kts | 188° |
| 2026-05-07 23:13 | 30.46674 | -87.18726 | 126 ft | 9 kts | 255° |
| 2026-05-07 23:14 | 30.46687 | -87.18795 | 124 ft | 10 kts | 324° |
| 2026-05-07 23:14 | 30.46768 | -87.18819 | 124 ft | 14 kts | 347° |
| 2026-05-07 23:14 | 30.46872 | -87.18848 | 127 ft | 17 kts | 346° |
| 2026-05-07 23:14 | 30.46997 | -87.18881 | 126 ft | 20 kts | 347° |
| 2026-05-07 23:15 | 30.47119 | -87.18912 | 124 ft | 18 kts | 347° |
| 2026-05-07 23:15 | 30.47255 | -87.18949 | 124 ft | 22 kts | 347° |
| 2026-05-07 23:15 | 30.47375 | -87.18983 | 126 ft | 13 kts | 333° |
| 2026-05-07 23:15 | 30.47425 | -87.19057 | 124 ft | 11 kts | 319° |
| 2026-05-07 23:16 | 30.47504 | -87.19085 | 125 ft | 13 kts | 347° |
| 2026-05-07 23:16 | 30.47567 | -87.19107 | 127 ft | 6 kts | 322° |
| 2026-05-07 23:16 | 30.47571 | -87.19151 | 128 ft | 0 kts | 252° |
| 2026-05-07 23:16 | 30.47565 | -87.19168 | 125 ft | 5 kts | 251° |
| 2026-05-07 23:17 | 30.47563 | -87.19178 | 133 ft | 0 kts | 251° |